sensor_id;sensor_type;location;lat;lon;timestamp;temperature;humidity
9118;DHT22;4594;50.994;7.126;2024-01-30T00:01:51;10.90;51.30
9118;DHT22;4594;50.994;7.126;2024-01-30T00:04:16;10.80;51.30
9118;DHT22;4594;50.994;7.126;2024-01-30T00:06:43;10.80;51.30
9118;DHT22;4594;50.994;7.126;2024-01-30T00:09:09;10.70;51.20
9118;DHT22;4594;50.994;7.126;2024-01-30T00:11:36;10.80;51.40
9118;DHT22;4594;50.994;7.126;2024-01-30T00:14:03;10.70;51.20
9118;DHT22;4594;50.994;7.126;2024-01-30T00:16:29;10.70;51.30
9118;DHT22;4594;50.994;7.126;2024-01-30T00:18:55;10.90;51.50
9118;DHT22;4594;50.994;7.126;2024-01-30T00:21:21;10.80;51.30
9118;DHT22;4594;50.994;7.126;2024-01-30T00:23:48;10.70;51.30
9118;DHT22;4594;50.994;7.126;2024-01-30T00:26:14;10.70;51.40
9118;DHT22;4594;50.994;7.126;2024-01-30T00:28:40;10.70;51.40
9118;DHT22;4594;50.994;7.126;2024-01-30T00:31:07;10.70;51.50
9118;DHT22;4594;50.994;7.126;2024-01-30T00:33:33;10.70;51.40
9118;DHT22;4594;50.994;7.126;2024-01-30T00:35:58;10.70;51.40
9118;DHT22;4594;50.994;7.126;2024-01-30T00:38:24;10.70;51.50
9118;DHT22;4594;50.994;7.126;2024-01-30T00:40:50;10.70;51.70
9118;DHT22;4594;50.994;7.126;2024-01-30T00:43:15;10.60;51.50
9118;DHT22;4594;50.994;7.126;2024-01-30T00:45:43;10.60;51.40
9118;DHT22;4594;50.994;7.126;2024-01-30T00:48:09;10.60;51.50
9118;DHT22;4594;50.994;7.126;2024-01-30T00:50:35;10.60;51.50
9118;DHT22;4594;50.994;7.126;2024-01-30T00:53:00;10.60;51.60
9118;DHT22;4594;50.994;7.126;2024-01-30T00:55:26;10.60;51.50
9118;DHT22;4594;50.994;7.126;2024-01-30T00:57:52;10.60;51.70
9118;DHT22;4594;50.994;7.126;2024-01-30T01:00:18;10.70;51.80
9118;DHT22;4594;50.994;7.126;2024-01-30T01:02:44;10.60;51.70
9118;DHT22;4594;50.994;7.126;2024-01-30T01:05:10;10.60;51.60
9118;DHT22;4594;50.994;7.126;2024-01-30T01:07:36;10.60;51.70
9118;DHT22;4594;50.994;7.126;2024-01-30T01:10:02;10.70;51.80
9118;DHT22;4594;50.994;7.126;2024-01-30T01:12:28;10.60;51.70
9118;DHT22;4594;50.994;7.126;2024-01-30T01:14:53;10.60;51.70
9118;DHT22;4594;50.994;7.126;2024-01-30T01:17:19;10.60;51.70
9118;DHT22;4594;50.994;7.126;2024-01-30T01:19:45;10.60;51.70
9118;DHT22;4594;50.994;7.126;2024-01-30T01:22:11;10.60;51.80
9118;DHT22;4594;50.994;7.126;2024-01-30T01:24:36;10.60;51.90
9118;DHT22;4594;50.994;7.126;2024-01-30T01:27:03;10.60;51.90
9118;DHT22;4594;50.994;7.126;2024-01-30T01:29:29;10.60;52.00
9118;DHT22;4594;50.994;7.126;2024-01-30T01:31:55;10.60;52.10
9118;DHT22;4594;50.994;7.126;2024-01-30T01:34:21;10.60;52.20
9118;DHT22;4594;50.994;7.126;2024-01-30T01:36:49;10.60;52.20
9118;DHT22;4594;50.994;7.126;2024-01-30T01:39:15;10.70;52.30
9118;DHT22;4594;50.994;7.126;2024-01-30T01:41:41;10.70;52.40
9118;DHT22;4594;50.994;7.126;2024-01-30T01:44:07;10.70;52.40
9118;DHT22;4594;50.994;7.126;2024-01-30T01:46:34;10.70;52.40
9118;DHT22;4594;50.994;7.126;2024-01-30T01:49:02;10.70;52.30
9118;DHT22;4594;50.994;7.126;2024-01-30T01:51:31;10.80;52.20
9118;DHT22;4594;50.994;7.126;2024-01-30T01:54:03;10.80;52.20
9118;DHT22;4594;50.994;7.126;2024-01-30T01:56:31;10.80;52.00
9118;DHT22;4594;50.994;7.126;2024-01-30T01:59:06;10.80;52.20
9118;DHT22;4594;50.994;7.126;2024-01-30T02:01:34;10.80;51.70
9118;DHT22;4594;50.994;7.126;2024-01-30T02:04:02;10.80;52.20
9118;DHT22;4594;50.994;7.126;2024-01-30T02:06:28;10.80;52.10
9118;DHT22;4594;50.994;7.126;2024-01-30T02:08:54;10.80;52.10
9118;DHT22;4594;50.994;7.126;2024-01-30T02:11:21;10.80;52.10
9118;DHT22;4594;50.994;7.126;2024-01-30T02:13:49;10.70;51.90
9118;DHT22;4594;50.994;7.126;2024-01-30T02:16:15;10.80;51.90
9118;DHT22;4594;50.994;7.126;2024-01-30T02:18:42;10.80;52.00
9118;DHT22;4594;50.994;7.126;2024-01-30T02:21:10;10.80;52.00
9118;DHT22;4594;50.994;7.126;2024-01-30T02:23:36;10.80;52.00
9118;DHT22;4594;50.994;7.126;2024-01-30T02:26:03;10.80;52.10
9118;DHT22;4594;50.994;7.126;2024-01-30T02:28:29;10.80;52.20
9118;DHT22;4594;50.994;7.126;2024-01-30T02:30:54;10.80;52.30
9118;DHT22;4594;50.994;7.126;2024-01-30T02:33:20;10.80;52.20
9118;DHT22;4594;50.994;7.126;2024-01-30T02:35:48;10.80;52.20
9118;DHT22;4594;50.994;7.126;2024-01-30T02:38:15;10.80;52.20
9118;DHT22;4594;50.994;7.126;2024-01-30T02:40:41;10.80;52.20
9118;DHT22;4594;50.994;7.126;2024-01-30T02:43:06;10.80;52.30
9118;DHT22;4594;50.994;7.126;2024-01-30T02:45:32;10.80;52.30
9118;DHT22;4594;50.994;7.126;2024-01-30T02:47:58;10.80;52.50
9118;DHT22;4594;50.994;7.126;2024-01-30T02:50:23;10.80;52.60
9118;DHT22;4594;50.994;7.126;2024-01-30T02:52:49;10.80;52.50
9118;DHT22;4594;50.994;7.126;2024-01-30T02:55:15;10.90;52.50
9118;DHT22;4594;50.994;7.126;2024-01-30T02:57:43;10.90;52.40
9118;DHT22;4594;50.994;7.126;2024-01-30T03:00:09;10.90;52.40
9118;DHT22;4594;50.994;7.126;2024-01-30T03:02:36;10.90;52.40
9118;DHT22;4594;50.994;7.126;2024-01-30T03:05:02;10.90;52.50
9118;DHT22;4594;50.994;7.126;2024-01-30T03:07:29;10.90;52.50
9118;DHT22;4594;50.994;7.126;2024-01-30T03:09:55;10.90;52.40
9118;DHT22;4594;50.994;7.126;2024-01-30T03:12:21;10.90;52.30
9118;DHT22;4594;50.994;7.126;2024-01-30T03:14:47;10.90;52.30
9118;DHT22;4594;50.994;7.126;2024-01-30T03:17:14;10.90;52.30
9118;DHT22;4594;50.994;7.126;2024-01-30T03:19:40;10.90;52.30
9118;DHT22;4594;50.994;7.126;2024-01-30T03:22:06;10.90;52.30
9118;DHT22;4594;50.994;7.126;2024-01-30T03:24:32;10.90;52.50
9118;DHT22;4594;50.994;7.126;2024-01-30T03:26:58;10.90;52.30
9118;DHT22;4594;50.994;7.126;2024-01-30T03:29:24;10.90;52.40
9118;DHT22;4594;50.994;7.126;2024-01-30T03:31:49;10.90;52.30
9118;DHT22;4594;50.994;7.126;2024-01-30T03:34:15;10.90;52.30
9118;DHT22;4594;50.994;7.126;2024-01-30T03:36:41;10.90;52.30
9118;DHT22;4594;50.994;7.126;2024-01-30T03:39:06;10.90;52.30
9118;DHT22;4594;50.994;7.126;2024-01-30T03:41:32;10.90;52.30
9118;DHT22;4594;50.994;7.126;2024-01-30T03:43:58;10.90;52.20
9118;DHT22;4594;50.994;7.126;2024-01-30T03:46:24;10.90;52.30
9118;DHT22;4594;50.994;7.126;2024-01-30T03:48:50;10.90;52.20
9118;DHT22;4594;50.994;7.126;2024-01-30T03:51:16;10.90;52.20
9118;DHT22;4594;50.994;7.126;2024-01-30T03:53:42;10.90;52.10
9118;DHT22;4594;50.994;7.126;2024-01-30T03:56:09;10.90;52.00
9118;DHT22;4594;50.994;7.126;2024-01-30T03:58:35;10.90;52.10
9118;DHT22;4594;50.994;7.126;2024-01-30T04:01:01;10.90;52.10
9118;DHT22;4594;50.994;7.126;2024-01-30T04:03:27;10.90;52.00
9118;DHT22;4594;50.994;7.126;2024-01-30T04:05:52;10.90;52.10
9118;DHT22;4594;50.994;7.126;2024-01-30T04:08:18;10.90;52.10
9118;DHT22;4594;50.994;7.126;2024-01-30T04:10:45;10.80;52.00
9118;DHT22;4594;50.994;7.126;2024-01-30T04:13:11;10.80;52.00
9118;DHT22;4594;50.994;7.126;2024-01-30T04:15:37;10.80;52.10
9118;DHT22;4594;50.994;7.126;2024-01-30T04:18:02;10.90;52.10
9118;DHT22;4594;50.994;7.126;2024-01-30T04:20:29;10.80;52.00
9118;DHT22;4594;50.994;7.126;2024-01-30T04:22:55;10.80;51.90
9118;DHT22;4594;50.994;7.126;2024-01-30T04:25:20;10.80;52.00
9118;DHT22;4594;50.994;7.126;2024-01-30T04:27:46;10.80;52.00
9118;DHT22;4594;50.994;7.126;2024-01-30T04:30:12;10.80;52.10
9118;DHT22;4594;50.994;7.126;2024-01-30T04:32:38;10.80;52.10
9118;DHT22;4594;50.994;7.126;2024-01-30T04:35:04;10.80;52.10
9118;DHT22;4594;50.994;7.126;2024-01-30T04:37:30;10.80;52.10
9118;DHT22;4594;50.994;7.126;2024-01-30T04:39:56;10.80;52.10
9118;DHT22;4594;50.994;7.126;2024-01-30T04:42:22;10.80;52.00
9118;DHT22;4594;50.994;7.126;2024-01-30T04:44:47;10.80;51.90
9118;DHT22;4594;50.994;7.126;2024-01-30T04:47:13;10.80;51.90
9118;DHT22;4594;50.994;7.126;2024-01-30T04:49:39;10.80;51.90
9118;DHT22;4594;50.994;7.126;2024-01-30T04:52:06;10.80;51.90
9118;DHT22;4594;50.994;7.126;2024-01-30T04:54:32;10.80;51.80
9118;DHT22;4594;50.994;7.126;2024-01-30T04:56:58;10.80;51.90
9118;DHT22;4594;50.994;7.126;2024-01-30T04:59:24;10.80;51.80
9118;DHT22;4594;50.994;7.126;2024-01-30T05:01:50;10.80;51.80
9118;DHT22;4594;50.994;7.126;2024-01-30T05:04:15;10.80;51.80
9118;DHT22;4594;50.994;7.126;2024-01-30T05:06:41;10.70;51.80
9118;DHT22;4594;50.994;7.126;2024-01-30T05:09:07;10.70;51.70
9118;DHT22;4594;50.994;7.126;2024-01-30T05:11:42;10.70;51.80
9118;DHT22;4594;50.994;7.126;2024-01-30T05:14:07;10.70;51.10
9118;DHT22;4594;50.994;7.126;2024-01-30T05:16:37;10.70;51.60
9118;DHT22;4594;50.994;7.126;2024-01-30T05:19:02;10.70;51.50
9118;DHT22;4594;50.994;7.126;2024-01-30T05:21:28;10.70;51.40
9118;DHT22;4594;50.994;7.126;2024-01-30T05:23:54;10.60;51.30
9118;DHT22;4594;50.994;7.126;2024-01-30T05:26:19;10.60;51.20
9118;DHT22;4594;50.994;7.126;2024-01-30T05:28:45;10.50;51.10
9118;DHT22;4594;50.994;7.126;2024-01-30T05:31:11;10.50;51.00
9118;DHT22;4594;50.994;7.126;2024-01-30T05:33:36;10.50;50.90
9118;DHT22;4594;50.994;7.126;2024-01-30T05:36:03;10.40;50.90
9118;DHT22;4594;50.994;7.126;2024-01-30T05:38:28;10.40;50.90
9118;DHT22;4594;50.994;7.126;2024-01-30T05:40:55;10.30;50.80
9118;DHT22;4594;50.994;7.126;2024-01-30T05:43:20;10.30;50.90
9118;DHT22;4594;50.994;7.126;2024-01-30T05:45:46;10.30;51.00
9118;DHT22;4594;50.994;7.126;2024-01-30T05:48:12;10.30;51.10
9118;DHT22;4594;50.994;7.126;2024-01-30T05:50:37;10.20;51.10
9118;DHT22;4594;50.994;7.126;2024-01-30T05:53:03;10.20;51.20
9118;DHT22;4594;50.994;7.126;2024-01-30T05:55:29;10.20;51.30
9118;DHT22;4594;50.994;7.126;2024-01-30T05:57:54;10.20;51.50
9118;DHT22;4594;50.994;7.126;2024-01-30T06:00:20;10.20;51.60
9118;DHT22;4594;50.994;7.126;2024-01-30T06:02:46;10.20;51.70
9118;DHT22;4594;50.994;7.126;2024-01-30T06:05:12;10.20;51.90
9118;DHT22;4594;50.994;7.126;2024-01-30T06:07:38;10.20;52.10
9118;DHT22;4594;50.994;7.126;2024-01-30T06:10:04;10.20;52.20
9118;DHT22;4594;50.994;7.126;2024-01-30T06:12:30;10.20;52.30
9118;DHT22;4594;50.994;7.126;2024-01-30T06:14:56;10.30;52.40
9118;DHT22;4594;50.994;7.126;2024-01-30T06:17:23;10.30;52.40
9118;DHT22;4594;50.994;7.126;2024-01-30T06:19:49;10.30;52.30
9118;DHT22;4594;50.994;7.126;2024-01-30T06:22:15;10.30;52.30
9118;DHT22;4594;50.994;7.126;2024-01-30T06:24:41;10.30;52.20
9118;DHT22;4594;50.994;7.126;2024-01-30T06:27:07;10.30;52.30
9118;DHT22;4594;50.994;7.126;2024-01-30T06:29:33;10.30;52.20
9118;DHT22;4594;50.994;7.126;2024-01-30T06:31:59;10.40;52.40
9118;DHT22;4594;50.994;7.126;2024-01-30T06:34:24;10.40;52.40
9118;DHT22;4594;50.994;7.126;2024-01-30T06:36:51;10.40;52.40
9118;DHT22;4594;50.994;7.126;2024-01-30T06:39:17;10.40;52.50
9118;DHT22;4594;50.994;7.126;2024-01-30T06:41:43;10.40;52.50
9118;DHT22;4594;50.994;7.126;2024-01-30T06:44:09;10.40;52.50
9118;DHT22;4594;50.994;7.126;2024-01-30T06:46:35;10.40;52.50
9118;DHT22;4594;50.994;7.126;2024-01-30T06:49:01;10.50;52.60
9118;DHT22;4594;50.994;7.126;2024-01-30T06:51:26;10.50;52.60
9118;DHT22;4594;50.994;7.126;2024-01-30T06:53:52;10.50;52.70
9118;DHT22;4594;50.994;7.126;2024-01-30T06:56:18;10.50;52.70
9118;DHT22;4594;50.994;7.126;2024-01-30T06:58:52;10.60;52.80
9118;DHT22;4594;50.994;7.126;2024-01-30T07:01:18;10.60;52.30
9118;DHT22;4594;50.994;7.126;2024-01-30T07:03:44;10.60;52.80
9118;DHT22;4594;50.994;7.126;2024-01-30T07:06:10;10.60;52.90
9118;DHT22;4594;50.994;7.126;2024-01-30T07:08:36;10.70;53.00
9118;DHT22;4594;50.994;7.126;2024-01-30T07:11:07;10.70;53.00
9118;DHT22;4594;50.994;7.126;2024-01-30T07:13:34;10.70;53.00
9118;DHT22;4594;50.994;7.126;2024-01-30T07:16:00;10.70;53.00
9118;DHT22;4594;50.994;7.126;2024-01-30T07:18:26;10.70;53.10
9118;DHT22;4594;50.994;7.126;2024-01-30T07:20:51;10.80;53.20
9118;DHT22;4594;50.994;7.126;2024-01-30T07:23:17;10.80;53.20
9118;DHT22;4594;50.994;7.126;2024-01-30T07:25:43;10.80;53.10
9118;DHT22;4594;50.994;7.126;2024-01-30T07:28:10;10.90;53.40
9118;DHT22;4594;50.994;7.126;2024-01-30T07:30:37;10.90;53.10
9118;DHT22;4594;50.994;7.126;2024-01-30T07:33:04;10.90;53.10
9118;DHT22;4594;50.994;7.126;2024-01-30T07:35:30;11.00;53.20
9118;DHT22;4594;50.994;7.126;2024-01-30T07:37:55;11.00;53.20
9118;DHT22;4594;50.994;7.126;2024-01-30T07:40:22;11.00;53.20
9118;DHT22;4594;50.994;7.126;2024-01-30T07:42:48;11.00;53.30
9118;DHT22;4594;50.994;7.126;2024-01-30T07:45:14;11.10;53.40
9118;DHT22;4594;50.994;7.126;2024-01-30T07:47:39;11.10;53.30
9118;DHT22;4594;50.994;7.126;2024-01-30T07:50:05;11.10;53.30
9118;DHT22;4594;50.994;7.126;2024-01-30T07:52:31;11.20;53.30
9118;DHT22;4594;50.994;7.126;2024-01-30T07:54:57;11.20;53.30
9118;DHT22;4594;50.994;7.126;2024-01-30T07:57:23;11.20;53.40
9118;DHT22;4594;50.994;7.126;2024-01-30T07:59:48;11.30;53.50
9118;DHT22;4594;50.994;7.126;2024-01-30T08:02:14;11.30;53.40
9118;DHT22;4594;50.994;7.126;2024-01-30T08:04:40;11.30;53.40
9118;DHT22;4594;50.994;7.126;2024-01-30T08:07:06;11.40;53.60
9118;DHT22;4594;50.994;7.126;2024-01-30T08:09:32;11.40;53.60
9118;DHT22;4594;50.994;7.126;2024-01-30T08:11:57;11.40;53.60
9118;DHT22;4594;50.994;7.126;2024-01-30T08:14:24;11.50;53.60
9118;DHT22;4594;50.994;7.126;2024-01-30T08:16:51;11.50;53.60
9118;DHT22;4594;50.994;7.126;2024-01-30T08:19:16;11.60;53.70
9118;DHT22;4594;50.994;7.126;2024-01-30T08:21:42;11.60;53.70
9118;DHT22;4594;50.994;7.126;2024-01-30T08:24:08;11.70;53.70
9118;DHT22;4594;50.994;7.126;2024-01-30T08:26:34;11.70;53.80
9118;DHT22;4594;50.994;7.126;2024-01-30T08:29:01;11.80;53.90
9118;DHT22;4594;50.994;7.126;2024-01-30T08:31:27;11.80;53.80
9118;DHT22;4594;50.994;7.126;2024-01-30T08:33:52;11.90;53.90
9118;DHT22;4594;50.994;7.126;2024-01-30T08:36:19;11.90;53.80
9118;DHT22;4594;50.994;7.126;2024-01-30T08:38:45;12.10;53.90
9118;DHT22;4594;50.994;7.126;2024-01-30T08:41:11;12.00;53.70
9118;DHT22;4594;50.994;7.126;2024-01-30T08:43:36;12.10;53.70
9118;DHT22;4594;50.994;7.126;2024-01-30T08:46:03;12.10;53.80
9118;DHT22;4594;50.994;7.126;2024-01-30T08:48:29;12.10;53.60
9118;DHT22;4594;50.994;7.126;2024-01-30T08:50:55;12.20;53.70
9118;DHT22;4594;50.994;7.126;2024-01-30T08:53:21;12.20;53.70
9118;DHT22;4594;50.994;7.126;2024-01-30T08:55:46;12.20;53.70
9118;DHT22;4594;50.994;7.126;2024-01-30T08:58:12;12.20;53.70
9118;DHT22;4594;50.994;7.126;2024-01-30T09:00:38;12.30;53.70
9118;DHT22;4594;50.994;7.126;2024-01-30T09:03:04;12.30;53.80
9118;DHT22;4594;50.994;7.126;2024-01-30T09:05:30;12.40;53.80
9118;DHT22;4594;50.994;7.126;2024-01-30T09:07:55;12.40;53.80
9118;DHT22;4594;50.994;7.126;2024-01-30T09:10:21;12.50;53.90
9118;DHT22;4594;50.994;7.126;2024-01-30T09:12:47;12.60;54.00
9118;DHT22;4594;50.994;7.126;2024-01-30T09:15:13;12.60;54.20
9118;DHT22;4594;50.994;7.126;2024-01-30T09:17:39;12.70;54.60
9118;DHT22;4594;50.994;7.126;2024-01-30T09:20:05;12.80;54.90
9118;DHT22;4594;50.994;7.126;2024-01-30T09:22:31;12.90;54.60
9118;DHT22;4594;50.994;7.126;2024-01-30T09:24:57;13.00;54.70
9118;DHT22;4594;50.994;7.126;2024-01-30T09:27:23;13.10;54.60
9118;DHT22;4594;50.994;7.126;2024-01-30T09:29:49;13.20;54.50
9118;DHT22;4594;50.994;7.126;2024-01-30T09:32:15;13.30;54.50
9118;DHT22;4594;50.994;7.126;2024-01-30T09:34:41;13.30;54.50
9118;DHT22;4594;50.994;7.126;2024-01-30T09:37:07;13.40;54.60
9118;DHT22;4594;50.994;7.126;2024-01-30T09:39:33;13.50;54.70
9118;DHT22;4594;50.994;7.126;2024-01-30T09:42:22;13.60;54.90
9118;DHT22;4594;50.994;7.126;2024-01-30T09:44:54;13.70;53.40
9118;DHT22;4594;50.994;7.126;2024-01-30T09:47:20;13.80;54.70
9118;DHT22;4594;50.994;7.126;2024-01-30T09:49:46;14.00;54.70
9118;DHT22;4594;50.994;7.126;2024-01-30T09:52:13;14.00;54.40
9118;DHT22;4594;50.994;7.126;2024-01-30T09:54:39;14.10;54.10
9118;DHT22;4594;50.994;7.126;2024-01-30T09:57:06;14.10;53.90
9118;DHT22;4594;50.994;7.126;2024-01-30T09:59:33;14.20;53.90
9118;DHT22;4594;50.994;7.126;2024-01-30T10:01:59;14.20;53.50
9118;DHT22;4594;50.994;7.126;2024-01-30T10:04:24;14.30;53.40
9118;DHT22;4594;50.994;7.126;2024-01-30T10:06:51;14.30;53.30
9118;DHT22;4594;50.994;7.126;2024-01-30T10:09:16;14.40;52.90
9118;DHT22;4594;50.994;7.126;2024-01-30T10:11:42;14.40;52.90
9118;DHT22;4594;50.994;7.126;2024-01-30T10:14:08;14.50;52.90
9118;DHT22;4594;50.994;7.126;2024-01-30T10:16:37;14.50;52.60
9118;DHT22;4594;50.994;7.126;2024-01-30T10:19:02;14.50;52.00
9118;DHT22;4594;50.994;7.126;2024-01-30T10:21:29;14.50;52.50
9118;DHT22;4594;50.994;7.126;2024-01-30T10:23:55;14.60;52.80
9118;DHT22;4594;50.994;7.126;2024-01-30T10:26:21;14.70;53.10
9118;DHT22;4594;50.994;7.126;2024-01-30T10:28:48;14.80;53.00
9118;DHT22;4594;50.994;7.126;2024-01-30T10:31:18;14.90;53.20
9118;DHT22;4594;50.994;7.126;2024-01-30T10:33:46;15.00;52.40
9118;DHT22;4594;50.994;7.126;2024-01-30T10:36:14;15.00;53.40
9118;DHT22;4594;50.994;7.126;2024-01-30T10:38:42;15.10;53.10
9118;DHT22;4594;50.994;7.126;2024-01-30T10:41:11;15.30;53.20
9118;DHT22;4594;50.994;7.126;2024-01-30T10:43:46;15.30;52.70
9118;DHT22;4594;50.994;7.126;2024-01-30T10:46:31;15.40;51.80
9118;DHT22;4594;50.994;7.126;2024-01-30T10:48:58;15.50;52.10
9118;DHT22;4594;50.994;7.126;2024-01-30T10:51:27;15.50;52.20
9118;DHT22;4594;50.994;7.126;2024-01-30T10:53:53;15.60;51.60
9118;DHT22;4594;50.994;7.126;2024-01-30T10:56:21;15.60;51.90
9118;DHT22;4594;50.994;7.126;2024-01-30T10:58:50;15.60;51.90
9118;DHT22;4594;50.994;7.126;2024-01-30T11:01:22;15.60;51.20
9118;DHT22;4594;50.994;7.126;2024-01-30T11:03:52;15.60;51.30
9118;DHT22;4594;50.994;7.126;2024-01-30T11:06:18;15.60;50.80
9118;DHT22;4594;50.994;7.126;2024-01-30T11:09:00;15.50;51.40
9118;DHT22;4594;50.994;7.126;2024-01-30T11:11:29;15.60;50.20
9118;DHT22;4594;50.994;7.126;2024-01-30T11:13:54;15.60;51.50
9118;DHT22;4594;50.994;7.126;2024-01-30T11:16:20;15.60;51.30
9118;DHT22;4594;50.994;7.126;2024-01-30T11:18:50;15.60;51.30
9118;DHT22;4594;50.994;7.126;2024-01-30T11:21:19;15.60;50.60
9118;DHT22;4594;50.994;7.126;2024-01-30T11:23:44;15.60;51.20
9118;DHT22;4594;50.994;7.126;2024-01-30T11:26:10;15.60;51.30
9118;DHT22;4594;50.994;7.126;2024-01-30T11:28:38;15.60;51.30
9118;DHT22;4594;50.994;7.126;2024-01-30T11:31:07;15.70;51.30
9118;DHT22;4594;50.994;7.126;2024-01-30T11:33:33;15.70;51.00
9118;DHT22;4594;50.994;7.126;2024-01-30T11:36:00;15.70;51.60
9118;DHT22;4594;50.994;7.126;2024-01-30T11:38:27;15.90;51.70
9118;DHT22;4594;50.994;7.126;2024-01-30T11:40:57;15.80;51.60
9118;DHT22;4594;50.994;7.126;2024-01-30T11:43:23;15.80;51.30
9118;DHT22;4594;50.994;7.126;2024-01-30T11:45:49;15.80;51.80
9118;DHT22;4594;50.994;7.126;2024-01-30T11:48:15;15.80;51.70
9118;DHT22;4594;50.994;7.126;2024-01-30T11:50:41;15.90;51.70
9118;DHT22;4594;50.994;7.126;2024-01-30T11:53:07;15.90;51.70
9118;DHT22;4594;50.994;7.126;2024-01-30T11:55:33;16.00;51.80
9118;DHT22;4594;50.994;7.126;2024-01-30T11:58:01;16.00;51.70
9118;DHT22;4594;50.994;7.126;2024-01-30T12:00:27;16.10;51.60
9118;DHT22;4594;50.994;7.126;2024-01-30T12:02:54;16.10;51.50
9118;DHT22;4594;50.994;7.126;2024-01-30T12:05:24;16.10;51.30
9118;DHT22;4594;50.994;7.126;2024-01-30T12:07:51;16.20;51.30
9118;DHT22;4594;50.994;7.126;2024-01-30T12:10:17;16.20;51.50
9118;DHT22;4594;50.994;7.126;2024-01-30T12:12:49;16.40;51.70
9118;DHT22;4594;50.994;7.126;2024-01-30T12:15:16;16.30;51.00
9118;DHT22;4594;50.994;7.126;2024-01-30T12:17:42;16.30;51.70
9118;DHT22;4594;50.994;7.126;2024-01-30T12:22:43;16.40;51.70
9118;DHT22;4594;50.994;7.126;2024-01-30T12:25:18;16.40;51.50
9118;DHT22;4594;50.994;7.126;2024-01-30T12:27:47;16.50;51.60
9118;DHT22;4594;50.994;7.126;2024-01-30T12:30:19;16.50;51.50
9118;DHT22;4594;50.994;7.126;2024-01-30T12:32:47;16.70;51.50
9118;DHT22;4594;50.994;7.126;2024-01-30T12:35:17;16.60;51.40
9118;DHT22;4594;50.994;7.126;2024-01-30T12:37:44;16.80;51.30
9118;DHT22;4594;50.994;7.126;2024-01-30T12:40:13;17.40;51.60
9118;DHT22;4594;50.994;7.126;2024-01-30T12:42:40;16.60;50.90
9118;DHT22;4594;50.994;7.126;2024-01-30T12:45:08;16.70;50.80
9118;DHT22;4594;50.994;7.126;2024-01-30T12:50:48;17.30;51.00
9118;DHT22;4594;50.994;7.126;2024-01-30T12:53:15;17.20;50.90
9118;DHT22;4594;50.994;7.126;2024-01-30T12:55:42;16.60;50.30
9118;DHT22;4594;50.994;7.126;2024-01-30T12:58:07;16.70;50.00
9118;DHT22;4594;50.994;7.126;2024-01-30T13:00:33;16.60;50.10
9118;DHT22;4594;50.994;7.126;2024-01-30T13:02:59;16.60;50.00
9118;DHT22;4594;50.994;7.126;2024-01-30T13:05:25;16.60;49.90
9118;DHT22;4594;50.994;7.126;2024-01-30T13:07:51;16.90;50.10
9118;DHT22;4594;50.994;7.126;2024-01-30T13:10:18;16.60;49.80
9118;DHT22;4594;50.994;7.126;2024-01-30T13:12:44;16.80;50.00
9118;DHT22;4594;50.994;7.126;2024-01-30T13:15:10;16.50;49.90
9118;DHT22;4594;50.994;7.126;2024-01-30T13:17:36;16.50;49.90
9118;DHT22;4594;50.994;7.126;2024-01-30T13:20:02;16.50;49.80
9118;DHT22;4594;50.994;7.126;2024-01-30T13:22:29;16.50;49.80
9118;DHT22;4594;50.994;7.126;2024-01-30T13:24:55;17.20;50.40
9118;DHT22;4594;50.994;7.126;2024-01-30T13:27:21;17.20;50.60
9118;DHT22;4594;50.994;7.126;2024-01-30T13:29:46;16.60;50.20
9118;DHT22;4594;50.994;7.126;2024-01-30T13:32:12;16.60;50.40
9118;DHT22;4594;50.994;7.126;2024-01-30T13:34:38;16.60;50.40
9118;DHT22;4594;50.994;7.126;2024-01-30T13:37:03;16.60;50.50
9118;DHT22;4594;50.994;7.126;2024-01-30T13:39:29;16.70;50.50
9118;DHT22;4594;50.994;7.126;2024-01-30T13:41:55;16.70;50.50
9118;DHT22;4594;50.994;7.126;2024-01-30T13:44:20;16.70;50.50
9118;DHT22;4594;50.994;7.126;2024-01-30T13:46:46;16.70;50.30
9118;DHT22;4594;50.994;7.126;2024-01-30T13:49:12;16.70;50.30
9118;DHT22;4594;50.994;7.126;2024-01-30T13:51:38;16.70;50.30
9118;DHT22;4594;50.994;7.126;2024-01-30T13:54:03;16.70;50.30
9118;DHT22;4594;50.994;7.126;2024-01-30T13:56:29;16.70;50.20
9118;DHT22;4594;50.994;7.126;2024-01-30T13:58:55;16.60;50.10
9118;DHT22;4594;50.994;7.126;2024-01-30T14:01:22;16.60;50.10
9118;DHT22;4594;50.994;7.126;2024-01-30T14:03:48;16.60;50.20
9118;DHT22;4594;50.994;7.126;2024-01-30T14:06:14;16.60;50.10
9118;DHT22;4594;50.994;7.126;2024-01-30T14:08:40;16.60;50.10
9118;DHT22;4594;50.994;7.126;2024-01-30T14:11:05;16.50;50.00
9118;DHT22;4594;50.994;7.126;2024-01-30T14:13:32;16.60;50.10
9118;DHT22;4594;50.994;7.126;2024-01-30T14:15:58;16.50;50.00
9118;DHT22;4594;50.994;7.126;2024-01-30T14:18:24;16.50;49.90
9118;DHT22;4594;50.994;7.126;2024-01-30T14:20:51;16.50;49.90
9118;DHT22;4594;50.994;7.126;2024-01-30T14:23:17;16.60;49.90
9118;DHT22;4594;50.994;7.126;2024-01-30T14:25:43;16.40;49.70
9118;DHT22;4594;50.994;7.126;2024-01-30T14:28:09;16.40;49.80
9118;DHT22;4594;50.994;7.126;2024-01-30T14:30:35;16.40;49.70
9118;DHT22;4594;50.994;7.126;2024-01-30T14:33:01;16.30;49.70
9118;DHT22;4594;50.994;7.126;2024-01-30T14:35:27;16.30;49.70
9118;DHT22;4594;50.994;7.126;2024-01-30T14:37:53;16.30;49.70
9118;DHT22;4594;50.994;7.126;2024-01-30T14:40:19;16.20;49.60
9118;DHT22;4594;50.994;7.126;2024-01-30T14:42:45;16.20;49.60
9118;DHT22;4594;50.994;7.126;2024-01-30T14:45:11;16.20;49.60
9118;DHT22;4594;50.994;7.126;2024-01-30T14:47:37;16.20;49.60
9118;DHT22;4594;50.994;7.126;2024-01-30T14:50:04;16.20;49.60
9118;DHT22;4594;50.994;7.126;2024-01-30T14:52:31;16.10;49.60
9118;DHT22;4594;50.994;7.126;2024-01-30T14:54:57;16.10;49.60
9118;DHT22;4594;50.994;7.126;2024-01-30T14:57:24;16.00;49.50
9118;DHT22;4594;50.994;7.126;2024-01-30T14:59:50;16.00;49.50
9118;DHT22;4594;50.994;7.126;2024-01-30T15:02:16;16.00;49.60
9118;DHT22;4594;50.994;7.126;2024-01-30T15:04:42;16.00;49.70
9118;DHT22;4594;50.994;7.126;2024-01-30T15:07:07;15.80;49.50
9118;DHT22;4594;50.994;7.126;2024-01-30T15:09:33;15.90;50.00
9118;DHT22;4594;50.994;7.126;2024-01-30T15:12:00;15.90;49.70
9118;DHT22;4594;50.994;7.126;2024-01-30T15:14:25;15.80;49.60
9118;DHT22;4594;50.994;7.126;2024-01-30T15:16:51;15.80;49.70
9118;DHT22;4594;50.994;7.126;2024-01-30T15:19:17;15.80;49.70
9118;DHT22;4594;50.994;7.126;2024-01-30T15:21:42;15.80;49.70
9118;DHT22;4594;50.994;7.126;2024-01-30T15:24:08;15.80;49.80
9118;DHT22;4594;50.994;7.126;2024-01-30T15:26:34;15.80;49.80
9118;DHT22;4594;50.994;7.126;2024-01-30T15:28:59;15.70;49.70
9118;DHT22;4594;50.994;7.126;2024-01-30T15:31:25;15.80;49.90
9118;DHT22;4594;50.994;7.126;2024-01-30T15:33:51;15.80;49.80
9118;DHT22;4594;50.994;7.126;2024-01-30T15:36:16;15.60;49.60
9118;DHT22;4594;50.994;7.126;2024-01-30T15:38:42;15.70;49.70
9118;DHT22;4594;50.994;7.126;2024-01-30T15:41:08;15.90;49.90
9118;DHT22;4594;50.994;7.126;2024-01-30T15:43:34;15.70;49.70
9118;DHT22;4594;50.994;7.126;2024-01-30T15:46:01;15.60;49.70
9118;DHT22;4594;50.994;7.126;2024-01-30T15:48:27;15.60;49.60
9118;DHT22;4594;50.994;7.126;2024-01-30T15:50:53;16.00;50.00
9118;DHT22;4594;50.994;7.126;2024-01-30T15:53:22;15.60;49.70
9118;DHT22;4594;50.994;7.126;2024-01-30T15:55:48;15.60;49.30
9118;DHT22;4594;50.994;7.126;2024-01-30T15:58:13;15.60;49.70
9118;DHT22;4594;50.994;7.126;2024-01-30T16:00:42;15.70;49.80
9118;DHT22;4594;50.994;7.126;2024-01-30T16:03:08;16.50;50.50